Time;durP1;ratioP1;P1;durP2;ratioP2;P2;SDS_P1;SDS_P2;PMS_P1;PMS_P2;Temp;Humidity;BMP_temperature;BMP_pressure;BME280_temperature;BME280_humidity;BME280_pressure;Samples;Min_cycle;Max_cycle;Signal;HPM_P1;HPM_P2
2022/03/03 00:00:19;;;;;;;29.47;14.23;;;-2.30;99.90;;;;;;5012407;28;20034;-77
2022/03/03 00:02:44;;;;;;;32.97;15.23;;;-2.30;99.90;;;;;;5012019;28;20028;-77
2022/03/03 00:05:11;;;;;;;29.93;15.80;;;-2.30;99.90;;;;;;4994465;28;20030;-77
2022/03/03 00:07:37;;;;;;;32.90;17.00;;;-2.30;99.90;;;;;;5011574;28;20026;-77
2022/03/03 00:10:04;;;;;;;37.37;17.23;;;-2.40;99.90;;;;;;5011937;28;20080;-77
2022/03/03 00:12:30;;;;;;;37.77;16.37;;;-2.40;99.90;;;;;;4993942;28;20128;-77
2022/03/03 00:14:56;;;;;;;38.47;15.90;;;-2.40;99.90;;;;;;4994273;28;20527;-77
2022/03/03 00:17:21;;;;;;;38.47;16.83;;;-2.40;99.90;;;;;;5011639;28;20030;-77
2022/03/03 00:19:47;;;;;;;29.93;15.97;;;-2.40;99.90;;;;;;4993945;28;20075;-77
2022/03/03 00:22:13;;;;;;;31.23;16.23;;;-2.40;99.90;;;;;;5011614;28;20038;-77
2022/03/03 00:24:38;;;;;;;32.00;15.30;;;-2.40;99.90;;;;;;5011378;28;20238;-77
2022/03/03 00:27:05;;;;;;;33.23;16.50;;;-2.50;99.90;;;;;;4993632;28;20042;-77
2022/03/03 00:29:31;;;;;;;30.10;16.23;;;-2.50;99.90;;;;;;5011579;28;20057;-77
2022/03/03 00:31:57;;;;;;;27.40;15.30;;;-2.50;99.90;;;;;;5010708;28;20153;-77
2022/03/03 00:34:22;;;;;;;27.67;15.70;;;-2.50;99.90;;;;;;5011373;28;20489;-77
2022/03/03 00:36:48;;;;;;;28.20;15.13;;;-2.50;99.90;;;;;;5012716;28;20041;-73
2022/03/03 00:39:14;;;;;;;29.50;15.17;;;-2.50;99.90;;;;;;5014096;28;20099;-72
2022/03/03 00:41:40;;;;;;;26.47;15.33;;;-2.40;99.90;;;;;;4996905;28;20428;-73
2022/03/03 00:44:06;;;;;;;33.33;15.53;;;-2.50;99.90;;;;;;5014218;28;20375;-73
2022/03/03 00:46:35;;;;;;;39.03;17.87;;;-2.50;99.90;;;;;;5014113;28;20030;-73
2022/03/03 00:49:00;;;;;;;26.03;15.60;;;-2.60;99.90;;;;;;5014175;28;20037;-73
2022/03/03 00:51:26;;;;;;;30.00;15.40;;;-2.60;99.90;;;;;;5014037;28;20037;-73
2022/03/03 00:53:51;;;;;;;35.97;17.73;;;-2.70;99.90;;;;;;5014102;28;20037;-73
2022/03/03 00:56:17;;;;;;;38.43;16.67;;;-2.70;99.90;;;;;;5013908;28;20024;-73
2022/03/03 00:58:43;;;;;;;34.63;16.40;;;-2.70;99.90;;;;;;5014168;28;20034;-72
2022/03/03 01:01:09;;;;;;;32.87;16.47;;;-2.70;99.90;;;;;;4996242;28;20030;-72
2022/03/03 01:03:35;;;;;;;33.00;16.27;;;-2.70;99.90;;;;;;5013939;28;20044;-72
2022/03/03 01:06:00;;;;;;;33.43;15.77;;;-2.80;99.90;;;;;;5013763;28;20421;-72
2022/03/03 01:08:26;;;;;;;29.77;15.90;;;-2.80;99.90;;;;;;5014125;28;20091;-71
2022/03/03 01:10:51;;;;;;;31.40;15.00;;;-2.80;99.90;;;;;;5014055;28;20079;-73
2022/03/03 01:13:17;;;;;;;46.30;17.33;;;-2.80;99.90;;;;;;5014195;28;20033;-72
2022/03/03 01:15:44;;;;;;;35.93;15.87;;;-2.80;99.90;;;;;;5013518;28;20486;-72
2022/03/03 01:18:09;;;;;;;27.77;16.03;;;-2.90;99.90;;;;;;5013614;28;20471;-72
2022/03/03 01:20:35;;;;;;;29.53;15.73;;;-2.90;99.90;;;;;;4995933;28;20127;-72
2022/03/03 01:23:00;;;;;;;30.93;16.67;;;-2.90;99.90;;;;;;5013600;28;20026;-72
2022/03/03 01:25:26;;;;;;;31.80;16.13;;;-3.00;99.90;;;;;;4995953;28;20058;-72
2022/03/03 01:27:52;;;;;;;25.77;15.00;;;-3.00;99.90;;;;;;5013991;28;20447;-72
2022/03/03 01:30:17;;;;;;;25.73;15.97;;;-3.00;99.90;;;;;;5013516;28;20030;-71
2022/03/03 01:32:43;;;;;;;24.87;14.03;;;-3.00;99.90;;;;;;5013518;28;20038;-72
2022/03/03 01:35:08;;;;;;;40.20;15.13;;;-3.00;99.90;;;;;;5013455;28;20026;-71
2022/03/03 01:37:34;;;;;;;26.13;15.70;;;-3.00;99.90;;;;;;5013492;28;20362;-72
2022/03/03 01:40:00;;;;;;;26.33;15.37;;;-3.10;99.90;;;;;;5013302;28;20069;-73
2022/03/03 01:42:25;;;;;;;26.80;15.10;;;-3.10;99.90;;;;;;5013205;28;20032;-73
2022/03/03 01:44:51;;;;;;;28.77;14.20;;;-3.20;99.90;;;;;;5013110;28;20066;-73
2022/03/03 01:47:24;;;;;;;26.63;14.83;;;-3.20;99.90;;;;;;5013667;28;20459;-73
2022/03/03 01:49:53;;;;;;;30.07;14.80;;;-3.20;99.90;;;;;;4996143;28;20038;-72
2022/03/03 01:52:19;;;;;;;23.30;14.83;;;-3.20;99.90;;;;;;5013302;28;20339;-73
2022/03/03 01:54:45;;;;;;;29.53;15.03;;;-3.20;99.90;;;;;;5013189;28;20041;-73
2022/03/03 01:57:11;;;;;;;29.13;16.37;;;-3.30;99.90;;;;;;4995542;28;20037;-73
2022/03/03 01:59:38;;;;;;;26.73;14.80;;;-3.20;99.90;;;;;;5013285;28;20378;-73
2022/03/03 02:02:08;;;;;;;30.43;15.73;;;-3.20;99.90;;;;;;5013233;28;20048;-73
2022/03/03 02:04:34;;;;;;;33.63;16.80;;;-3.30;99.90;;;;;;5013184;28;20483;-73
2022/03/03 02:07:00;;;;;;;28.77;16.23;;;-3.30;99.90;;;;;;5013399;28;20030;-73
2022/03/03 02:09:26;;;;;;;36.90;16.93;;;-3.30;99.90;;;;;;5013044;28;20026;-73
2022/03/03 02:11:51;;;;;;;32.43;15.93;;;-3.30;99.90;;;;;;5013103;28;20045;-72
2022/03/03 02:14:18;;;;;;;28.33;16.47;;;-3.30;99.90;;;;;;5013751;28;20034;-73
2022/03/03 02:16:43;;;;;;;34.20;16.50;;;-3.30;99.90;;;;;;5013006;28;20030;-72
2022/03/03 02:19:17;;;;;;;32.63;16.27;;;-3.30;99.90;;;;;;5013104;28;20104;-72
2022/03/03 02:21:49;;;;;;;28.00;16.03;;;-3.40;99.90;;;;;;5012694;28;20030;-72
2022/03/03 02:24:15;;;;;;;30.93;16.73;;;-3.40;99.90;;;;;;5012576;28;20034;-73
2022/03/03 02:26:41;;;;;;;31.33;16.67;;;-3.40;99.90;;;;;;5012407;28;20510;-72
2022/03/03 02:29:07;;;;;;;29.20;15.57;;;-3.40;99.90;;;;;;5012404;28;20060;-73
2022/03/03 02:31:33;;;;;;;31.57;15.33;;;-3.40;99.90;;;;;;5012376;28;20102;-72
2022/03/03 02:33:58;;;;;;;27.10;15.13;;;-3.40;99.90;;;;;;5012625;28;20111;-72
2022/03/03 02:36:27;;;;;;;27.93;15.60;;;-3.40;99.90;;;;;;5012493;28;20329;-72
2022/03/03 02:38:55;;;;;;;28.17;16.13;;;-3.40;99.90;;;;;;5012179;28;20109;-73
2022/03/03 02:41:21;;;;;;;28.10;16.87;;;-3.50;99.90;;;;;;5012376;28;20484;-73
2022/03/03 02:43:47;;;;;;;28.17;16.63;;;-3.50;99.90;;;;;;5012389;28;20022;-72
2022/03/03 02:46:13;;;;;;;33.80;16.43;;;-3.50;99.90;;;;;;5012235;28;20030;-72
2022/03/03 02:48:39;;;;;;;32.13;16.10;;;-3.50;99.90;;;;;;4994499;28;20030;-72
2022/03/03 02:51:06;;;;;;;27.57;16.63;;;-3.50;99.90;;;;;;5012124;28;20040;-73
2022/03/03 02:53:32;;;;;;;30.93;16.70;;;-3.60;99.90;;;;;;5012187;28;20033;-72
2022/03/03 02:55:58;;;;;;;30.90;16.23;;;-3.60;99.90;;;;;;5013637;28;20026;-73
2022/03/03 02:58:23;;;;;;;30.40;17.57;;;-3.50;99.90;;;;;;5015548;28;20022;-71
2022/03/03 03:00:49;;;;;;;26.50;15.27;;;-3.50;99.90;;;;;;5015532;28;20104;-72
2022/03/03 03:03:16;;;;;;;30.90;15.83;;;-3.60;99.90;;;;;;4997932;28;20117;-71
2022/03/03 03:05:42;;;;;;;26.63;15.53;;;-3.60;99.90;;;;;;5015828;28;20032;-72
2022/03/03 03:08:09;;;;;;;29.03;16.43;;;-3.60;99.90;;;;;;5015497;28;20045;-72
2022/03/03 03:10:35;;;;;;;30.17;17.60;;;-3.70;99.90;;;;;;5015386;28;20038;-72
2022/03/03 03:13:01;;;;;;;30.97;17.10;;;-3.70;99.90;;;;;;5015469;28;20040;-72
2022/03/03 03:15:26;;;;;;;30.30;17.00;;;-3.70;99.90;;;;;;5015201;28;20033;-72
2022/03/03 03:17:52;;;;;;;32.73;16.90;;;-3.70;99.90;;;;;;5015377;28;20026;-72
2022/03/03 03:20:18;;;;;;;29.83;16.03;;;-3.80;99.90;;;;;;5015339;28;20030;-72
2022/03/03 03:22:44;;;;;;;28.57;16.37;;;-3.80;99.90;;;;;;5015300;28;20033;-73
2022/03/03 03:25:12;;;;;;;28.23;16.33;;;-3.80;99.90;;;;;;5015222;28;20033;-73
2022/03/03 03:27:40;;;;;;;29.63;16.83;;;-3.80;99.90;;;;;;5015097;28;20030;-73
2022/03/03 03:30:08;;;;;;;32.87;17.87;;;-3.80;99.90;;;;;;5015872;28;20026;-72
2022/03/03 03:32:34;;;;;;;26.87;16.23;;;-3.80;99.90;;;;;;5015117;28;20033;-73
2022/03/03 03:34:59;;;;;;;32.70;16.97;;;-3.80;99.90;;;;;;5015063;28;20471;-72
2022/03/03 03:37:25;;;;;;;27.20;15.50;;;-3.90;99.90;;;;;;5015233;28;20092;-73
2022/03/03 03:39:51;;;;;;;30.20;17.27;;;-3.80;99.90;;;;;;5014819;28;20454;-72
2022/03/03 03:42:17;;;;;;;31.47;16.97;;;-3.90;99.90;;;;;;4997642;28;20193;-72
2022/03/03 03:44:43;;;;;;;30.87;16.43;;;-3.90;99.90;;;;;;5014916;28;20088;-72
2022/03/03 03:47:10;;;;;;;31.77;16.30;;;-3.90;99.90;;;;;;5014930;28;20423;-73
2022/03/03 03:49:36;;;;;;;31.33;16.80;;;-3.90;99.90;;;;;;5012581;28;20026;-76
2022/03/03 03:52:02;;;;;;;32.17;17.90;;;-4.00;99.90;;;;;;4995125;28;20096;-74
2022/03/03 03:54:28;;;;;;;29.63;16.17;;;-4.00;99.90;;;;;;5012200;28;20525;-74
2022/03/03 03:56:53;;;;;;;33.63;16.47;;;-4.00;99.90;;;;;;5011489;28;20069;-74
2022/03/03 03:59:19;;;;;;;41.93;17.57;;;-4.10;99.90;;;;;;5011598;28;20772;-74
2022/03/03 04:01:45;;;;;;;30.53;16.63;;;-4.10;99.90;;;;;;5011161;28;20113;-74
2022/03/03 04:04:10;;;;;;;31.13;17.20;;;-4.10;99.90;;;;;;4993974;28;20052;-74
2022/03/03 04:06:37;;;;;;;35.00;16.70;;;-4.10;99.90;;;;;;4982243;28;20722;-74
2022/03/03 04:09:04;;;;;;;29.70;16.93;;;-4.10;99.90;;;;;;4994347;28;20037;-74
2022/03/03 04:11:30;;;;;;;28.47;16.30;;;-4.10;99.90;;;;;;5011812;28;20038;-74
2022/03/03 04:13:59;;;;;;;29.40;16.77;;;-4.10;99.90;;;;;;4994649;28;20061;-74
2022/03/03 04:16:25;;;;;;;29.07;15.67;;;-4.10;99.90;;;;;;5012099;28;20420;-74
2022/03/03 04:18:50;;;;;;;25.13;15.70;;;-4.20;99.90;;;;;;5012109;28;20026;-75
2022/03/03 04:21:16;;;;;;;30.73;15.43;;;-4.10;99.90;;;;;;5012338;28;20026;-74
2022/03/03 04:23:42;;;;;;;29.67;17.47;;;-4.20;99.90;;;;;;5011921;28;20137;-75
2022/03/03 04:26:08;;;;;;;38.90;17.87;;;-4.30;99.90;;;;;;5011734;28;20493;-74
2022/03/03 04:28:33;;;;;;;37.30;18.43;;;-4.30;99.90;;;;;;5011659;28;20105;-74
2022/03/03 04:30:59;;;;;;;30.67;16.53;;;-4.30;99.90;;;;;;5011690;28;20112;-74
2022/03/03 04:33:25;;;;;;;35.77;18.60;;;-4.30;99.90;;;;;;5011478;28;20030;-74
2022/03/03 04:35:51;;;;;;;41.80;19.03;;;-4.30;99.90;;;;;;5011350;28;20386;-74
2022/03/03 04:38:17;;;;;;;37.20;19.67;;;-4.40;99.90;;;;;;5011240;28;20030;-75
2022/03/03 04:40:42;;;;;;;41.60;20.20;;;-4.40;99.90;;;;;;5011533;28;20057;-74
2022/03/03 04:43:08;;;;;;;37.57;20.90;;;-4.40;99.90;;;;;;5011459;28;20469;-74
2022/03/03 04:45:34;;;;;;;44.37;20.87;;;-4.40;99.90;;;;;;5011468;28;20768;-74
2022/03/03 04:48:00;;;;;;;33.43;19.17;;;-4.40;99.90;;;;;;5011394;28;20060;-74
2022/03/03 04:50:26;;;;;;;35.33;19.63;;;-4.40;99.90;;;;;;5011649;28;20132;-75
2022/03/03 04:52:52;;;;;;;36.67;19.23;;;-4.40;99.90;;;;;;5011707;28;20022;-75
2022/03/03 04:55:18;;;;;;;35.00;18.57;;;-4.40;99.90;;;;;;5011288;28;20045;-75
2022/03/03 04:57:43;;;;;;;30.83;16.33;;;-4.50;99.90;;;;;;5011473;28;20116;-75
2022/03/03 05:00:09;;;;;;;32.50;17.03;;;-4.50;99.90;;;;;;5011335;28;20030;-75
2022/03/03 05:02:35;;;;;;;35.90;16.87;;;-4.60;99.90;;;;;;4993621;28;20060;-75
2022/03/03 05:05:00;;;;;;;33.13;16.87;;;-4.60;99.90;;;;;;4993443;28;20030;-75
2022/03/03 05:07:26;;;;;;;28.23;17.10;;;-4.60;99.90;;;;;;5011150;28;20038;-75
2022/03/03 05:09:52;;;;;;;31.47;16.73;;;-4.60;99.90;;;;;;5011200;28;20113;-75
2022/03/03 05:12:17;;;;;;;31.47;15.93;;;-4.60;99.90;;;;;;4993702;28;20030;-75
2022/03/03 05:14:43;;;;;;;40.80;19.53;;;-4.60;99.90;;;;;;5011090;28;20034;-70
2022/03/03 05:17:08;;;;;;;31.63;16.70;;;-4.70;99.90;;;;;;5012530;28;20038;-75
2022/03/03 05:19:34;;;;;;;31.50;16.93;;;-4.70;99.90;;;;;;5012371;28;20027;-75
2022/03/03 05:21:59;;;;;;;29.83;17.53;;;-4.70;99.90;;;;;;4991014;28;20100;-85
2022/03/03 05:24:25;;;;;;;31.83;17.87;;;-4.70;99.90;;;;;;4987704;28;20027;-75
2022/03/03 05:26:51;;;;;;;38.37;19.57;;;-4.70;99.90;;;;;;5003408;28;20085;-76
2022/03/03 05:29:17;;;;;;;35.03;18.57;;;-4.70;99.90;;;;;;5003788;28;20033;-75
2022/03/03 05:31:42;;;;;;;37.90;18.23;;;-4.70;99.90;;;;;;5004991;28;20036;-76
2022/03/03 05:34:08;;;;;;;32.43;17.57;;;-4.70;99.90;;;;;;5008604;28;20057;-76
2022/03/03 05:36:38;;;;;;;28.50;16.60;;;-4.70;99.90;;;;;;5005731;28;20109;-76
2022/03/03 05:39:04;;;;;;;34.57;16.83;;;-4.70;99.90;;;;;;5010089;28;20025;-75
2022/03/03 05:41:30;;;;;;;36.23;16.80;;;-4.70;99.90;;;;;;4991167;28;20398;-76
2022/03/03 05:43:57;;;;;;;28.87;16.33;;;-4.70;99.90;;;;;;5005922;28;20023;-75
2022/03/03 05:46:23;;;;;;;29.73;15.93;;;-4.70;99.90;;;;;;5004549;28;20088;-75
2022/03/03 05:48:49;;;;;;;30.43;17.00;;;-4.70;99.90;;;;;;5003593;28;20383;-75
2022/03/03 05:51:15;;;;;;;27.53;15.60;;;-4.70;99.90;;;;;;5008489;28;20033;-75
2022/03/03 05:53:41;;;;;;;26.93;15.47;;;-4.70;99.90;;;;;;5003191;28;20037;-75
2022/03/03 05:56:09;;;;;;;29.27;15.70;;;-4.70;99.90;;;;;;5003310;28;20038;-75
2022/03/03 05:58:57;;;;;;;24.43;15.23;;;-4.70;99.90;;;;;;5007864;28;20029;-75
2022/03/03 06:01:24;;;;;;;25.03;14.90;;;-4.70;99.90;;;;;;5008400;28;20486;-76
2022/03/03 06:03:50;;;;;;;26.57;15.17;;;-4.60;99.90;;;;;;5011335;28;20087;-75
2022/03/03 06:06:15;;;;;;;26.80;15.20;;;-4.60;99.90;;;;;;5003250;28;20054;-75
2022/03/03 06:08:57;;;;;;;28.63;15.53;;;-4.60;99.90;;;;;;4985202;28;20088;-75
2022/03/03 06:11:26;;;;;;;28.17;14.83;;;-4.60;99.90;;;;;;4993164;28;20445;-76
2022/03/03 06:13:57;;;;;;;25.73;14.60;;;-4.60;99.90;;;;;;5011435;28;20080;-76
2022/03/03 06:16:25;;;;;;;29.93;15.63;;;-4.60;99.90;;;;;;5010437;28;20026;-75
2022/03/03 06:18:51;;;;;;;28.33;14.33;;;-4.50;99.90;;;;;;5009683;28;20055;-75
2022/03/03 06:21:17;;;;;;;31.77;16.07;;;-4.50;99.90;;;;;;5011458;28;20026;-75
2022/03/03 06:23:44;;;;;;;29.47;15.60;;;-4.40;99.90;;;;;;4993686;28;20033;-75
2022/03/03 06:26:18;;;;;;;29.20;15.83;;;-4.40;99.90;;;;;;5011359;28;20088;-75
2022/03/03 06:28:44;;;;;;;32.43;15.50;;;-4.40;99.90;;;;;;5011390;28;20037;-75
2022/03/03 06:31:10;;;;;;;28.40;15.70;;;-4.30;99.90;;;;;;4995639;28;20044;-75
2022/03/03 06:33:36;;;;;;;31.37;17.20;;;-4.30;99.90;;;;;;5015223;28;20071;-75
2022/03/03 06:36:02;;;;;;;28.13;16.40;;;-4.20;99.90;;;;;;4997454;28;20450;-75
2022/03/03 06:38:28;;;;;;;30.17;16.57;;;-4.20;99.90;;;;;;5015734;28;20120;-75
2022/03/03 06:40:55;;;;;;;32.23;17.90;;;-4.10;99.90;;;;;;5015525;28;20081;-75
2022/03/03 06:43:20;;;;;;;31.77;16.90;;;-4.00;99.90;;;;;;5014192;28;20018;-78
2022/03/03 06:45:46;;;;;;;29.27;16.57;;;-4.00;99.90;;;;;;5013535;28;20568;-78
2022/03/03 06:48:13;;;;;;;32.17;17.23;;;-3.90;99.90;;;;;;5013571;28;20040;-78
2022/03/03 06:50:40;;;;;;;42.20;18.93;;;-3.80;99.90;;;;;;4995767;28;20026;-79
2022/03/03 06:53:09;;;;;;;40.00;18.37;;;-3.80;99.90;;;;;;4996309;28;20037;-78
2022/03/03 06:55:37;;;;;;;37.87;18.50;;;-3.70;99.90;;;;;;4996119;28;20045;-78
2022/03/03 06:58:03;;;;;;;35.30;17.80;;;-3.60;99.90;;;;;;4996204;28;20061;-78
2022/03/03 07:00:33;;;;;;;35.70;17.97;;;-3.50;99.90;;;;;;5013202;28;20057;-78
2022/03/03 07:03:00;;;;;;;31.93;16.77;;;-3.20;99.90;;;;;;5013058;28;20105;-78
2022/03/03 07:05:28;;;;;;;30.93;17.70;;;-3.00;99.90;;;;;;5013251;28;20033;-79
2022/03/03 07:07:54;;;;;;;33.77;16.83;;;-2.90;99.90;;;;;;5013764;28;20090;-79
2022/03/03 07:10:24;;;;;;;31.13;17.10;;;-2.80;99.90;;;;;;5013898;28;20033;-79
2022/03/03 07:12:55;;;;;;;27.93;15.93;;;-2.80;99.90;;;;;;5013641;28;20030;-79
2022/03/03 07:15:21;;;;;;;30.40;15.43;;;-2.70;99.90;;;;;;5013995;28;20803;-79
2022/03/03 07:17:55;;;;;;;25.47;15.87;;;-2.50;99.90;;;;;;5014337;28;20196;-76
2022/03/03 07:20:48;;;;;;;28.47;16.43;;;-2.40;99.90;;;;;;5014746;28;20026;-76
2022/03/03 07:23:24;;;;;;;25.47;16.07;;;-2.30;99.90;;;;;;4997114;28;20033;-76
2022/03/03 07:25:54;;;;;;;30.57;17.00;;;-2.20;99.90;;;;;;5014689;28;20030;-76
2022/03/03 07:28:20;;;;;;;27.73;16.17;;;-2.10;99.90;;;;;;4997317;28;20378;-76
2022/03/03 07:30:49;;;;;;;31.00;16.90;;;-1.90;99.90;;;;;;4997129;28;20042;-76
2022/03/03 07:33:45;;;;;;;28.97;16.90;;;-1.80;99.90;;;;;;5014515;28;20033;-75
2022/03/03 07:36:18;;;;;;;23.77;14.83;;;-1.60;99.90;;;;;;4996594;28;20037;-75
2022/03/03 07:38:55;;;;;;;24.30;15.03;;;-1.50;99.90;;;;;;5014499;28;20018;-76
2022/03/03 07:41:22;;;;;;;21.47;14.47;;;-1.30;99.90;;;;;;5013751;28;20383;-75
2022/03/03 07:43:48;;;;;;;24.30;15.17;;;-1.20;99.90;;;;;;5014086;28;20028;-75
2022/03/03 07:46:14;;;;;;;23.40;15.20;;;-1.00;99.90;;;;;;5014316;28;20037;-75
2022/03/03 07:48:43;;;;;;;22.60;15.53;;;-0.90;99.90;;;;;;4996558;28;20030;-75
2022/03/03 07:51:10;;;;;;;26.47;15.77;;;-0.70;99.90;;;;;;4996363;28;20034;-76
2022/03/03 07:53:36;;;;;;;25.37;15.97;;;-0.60;99.90;;;;;;4996339;28;20383;-75
2022/03/03 07:56:03;;;;;;;26.40;15.63;;;-0.40;99.90;;;;;;5013634;28;20037;-76
2022/03/03 07:58:33;;;;;;;24.87;15.63;;;-0.30;99.90;;;;;;5011992;28;20494;-76
2022/03/03 08:01:05;;;;;;;28.03;15.93;;;-0.20;99.90;;;;;;5011772;28;20018;-76
2022/03/03 08:03:31;;;;;;;25.53;15.47;;;-0.10;99.90;;;;;;4993549;28;20727;-76
2022/03/03 08:05:58;;;;;;;24.37;16.03;;;0.10;99.90;;;;;;5010212;28;20022;-76
2022/03/03 08:08:28;;;;;;;25.50;15.70;;;0.30;99.90;;;;;;5011350;28;20048;-76
2022/03/03 08:11:05;;;;;;;25.30;15.30;;;0.50;99.90;;;;;;5011169;28;20465;-76
2022/03/03 08:13:34;;;;;;;26.47;16.97;;;0.90;99.90;;;;;;5011917;28;20751;-74
2022/03/03 08:16:02;;;;;;;26.07;16.97;;;1.10;99.90;;;;;;5011573;28;20053;-75
2022/03/03 08:18:31;;;;;;;24.90;17.60;;;1.10;99.90;;;;;;5011338;28;20053;-76
2022/03/03 08:21:00;;;;;;;25.40;15.50;;;1.10;99.90;;;;;;4993311;28;20027;-76
2022/03/03 08:23:27;;;;;;;25.33;15.93;;;1.40;99.90;;;;;;5011387;28;20026;-76
2022/03/03 08:25:54;;;;;;;25.87;16.43;;;1.70;99.90;;;;;;5010923;28;20068;-76
2022/03/03 08:28:23;;;;;;;27.10;15.67;;;1.80;99.90;;;;;;5010875;28;20411;-76
2022/03/03 08:31:10;;;;;;;24.60;16.00;;;1.80;99.90;;;;;;5010396;28;20029;-76
2022/03/03 08:33:40;;;;;;;25.80;17.60;;;1.90;99.90;;;;;;4991646;28;20395;-76
2022/03/03 08:36:15;;;;;;;25.47;16.87;;;1.80;99.90;;;;;;5010529;28;20061;-76
2022/03/03 08:38:45;;;;;;;;;;;1.90;99.90;;;;;;5004858;28;20098;-79
2022/03/03 08:41:14;;;;;;;23.17;15.73;;;2.10;99.90;;;;;;5006733;28;19927;-80
2022/03/03 08:43:42;;;;;;;23.80;15.87;;;2.10;99.90;;;;;;4989811;28;20030;-79
2022/03/03 08:46:09;;;;;;;26.87;15.90;;;2.30;99.90;;;;;;4989470;28;20045;-74
2022/03/03 08:48:35;;;;;;;26.13;15.40;;;2.30;99.90;;;;;;4994106;28;20480;-74
2022/03/03 08:51:02;;;;;;;26.00;17.17;;;2.50;99.90;;;;;;4976752;28;20042;-74
2022/03/03 08:53:28;;;;;;;30.23;16.73;;;2.60;99.90;;;;;;4993469;28;20028;-74
2022/03/03 08:55:54;;;;;;;26.23;16.03;;;2.70;99.90;;;;;;5007240;28;20053;-73
2022/03/03 08:58:21;;;;;;;22.47;15.00;;;2.80;99.90;;;;;;5013138;28;20015;-74
2022/03/03 09:00:48;;;;;;;26.33;15.80;;;3.00;99.90;;;;;;5007726;28;20108;-74
2022/03/03 09:03:18;;;;;;;23.13;15.93;;;3.10;99.90;;;;;;5002524;28;20058;-73
2022/03/03 09:05:44;;;;;;;24.97;15.73;;;3.00;99.90;;;;;;5013766;28;20022;-73
2022/03/03 09:08:09;;;;;;;27.17;17.07;;;3.40;99.90;;;;;;5013360;28;20375;-73
2022/03/03 09:10:36;;;;;;;23.97;15.37;;;3.50;99.90;;;;;;4995568;28;20026;-74
2022/03/03 09:13:01;;;;;;;21.87;15.03;;;3.80;99.90;;;;;;5013535;28;20022;-74
2022/03/03 09:15:30;;;;;;;26.13;15.70;;;3.90;99.90;;;;;;4995519;28;20405;-73
2022/03/03 09:17:56;;;;;;;22.63;16.83;;;3.90;99.90;;;;;;5013133;28;20105;-74
2022/03/03 09:20:21;;;;;;;22.80;15.07;;;4.00;99.90;;;;;;5009721;28;20065;-73
2022/03/03 09:22:47;;;;;;;21.43;14.60;;;4.40;99.90;;;;;;5012907;28;20051;-74
2022/03/03 09:25:13;;;;;;;25.57;14.33;;;4.80;99.90;;;;;;5012932;28;20034;-72
2022/03/03 09:27:39;;;;;;;24.53;15.00;;;5.30;99.90;;;;;;5012893;28;20066;-72
2022/03/03 09:30:06;;;;;;;25.07;15.90;;;5.30;99.90;;;;;;5012796;28;20422;-72
2022/03/03 09:32:32;;;;;;;25.27;15.97;;;5.50;99.90;;;;;;5006554;28;20040;-72
2022/03/03 09:34:57;;;;;;;24.23;16.00;;;5.40;99.90;;;;;;5012906;28;20034;-72
2022/03/03 09:37:23;;;;;;;20.47;15.40;;;5.30;99.90;;;;;;5012804;28;20108;-72
2022/03/03 09:39:50;;;;;;;25.23;16.30;;;5.90;99.90;;;;;;5006477;28;20061;-73
2022/03/03 09:42:16;;;;;;;27.57;15.63;;;6.40;99.90;;;;;;5001874;28;20022;-73
2022/03/03 09:44:42;;;;;;;24.90;14.33;;;6.30;99.90;;;;;;5005725;28;20160;-73
2022/03/03 09:47:13;;;;;;;27.23;14.90;;;6.50;99.90;;;;;;4994829;28;20061;-74
2022/03/03 09:49:42;;;;;;;19.97;14.20;;;6.70;99.90;;;;;;4994923;28;20430;-73
2022/03/03 09:52:12;;;;;;;22.40;15.57;;;7.20;99.90;;;;;;5012839;28;20085;-73
2022/03/03 09:54:38;;;;;;;23.87;14.47;;;7.70;99.90;;;;;;5012792;28;20030;-73
2022/03/03 09:57:04;;;;;;;21.07;15.13;;;7.50;99.90;;;;;;5012584;28;20036;-73
2022/03/03 09:59:29;;;;;;;22.03;14.83;;;7.80;99.90;;;;;;5012452;28;20026;-73
2022/03/03 10:02:03;;;;;;;21.30;13.50;;;7.80;99.90;;;;;;5001597;28;20538;-73
2022/03/03 10:04:28;;;;;;;19.47;12.60;;;8.30;99.90;;;;;;5009494;28;20538;-73
2022/03/03 10:06:54;;;;;;;21.30;14.83;;;8.60;99.90;;;;;;5016671;28;20109;-73
2022/03/03 10:09:19;;;;;;;23.60;14.83;;;8.60;99.90;;;;;;5016115;28;20037;-79
2022/03/03 10:11:48;;;;;;;20.40;14.23;;;8.50;99.90;;;;;;5003213;28;20133;-79
2022/03/03 10:14:24;;;;;;;24.17;14.20;;;8.50;99.90;;;;;;4999023;28;20037;-79
2022/03/03 10:16:50;;;;;;;19.53;14.73;;;8.80;99.90;;;;;;5002627;28;20033;-79
2022/03/03 10:19:16;;;;;;;22.27;14.53;;;8.90;99.90;;;;;;5003360;28;20403;-79
2022/03/03 10:21:43;;;;;;;21.17;13.87;;;8.70;99.90;;;;;;5002093;28;20032;-79
2022/03/03 10:24:21;;;;;;;21.10;15.03;;;8.90;99.90;;;;;;5007262;28;20022;-73
2022/03/03 10:27:02;;;;;;;23.60;14.20;;;9.10;99.90;;;;;;5016634;28;20030;-73
2022/03/03 10:29:29;;;;;;;20.50;13.87;;;9.10;99.90;;;;;;4998993;28;20124;-73
2022/03/03 10:31:56;;;;;;;15.73;12.13;;;8.70;99.90;;;;;;5016294;28;20026;-74
2022/03/03 10:34:33;;;;;;;25.33;13.77;;;9.00;99.90;;;;;;4993198;28;20042;-76
2022/03/03 10:37:03;;;;;;;20.23;13.50;;;9.80;99.90;;;;;;5010400;28;20068;-76
2022/03/03 10:39:59;;;;;;;17.88;12.88;;;9.40;99.90;;;;;;5014629;23;20206;-78
2022/03/03 10:42:26;;;;;;;18.85;12.30;;;9.80;99.90;;;;;;4974441;28;20045;-78
2022/03/03 10:45:09;;;;;;;17.50;12.90;;;10.30;99.90;;;;;;4972808;28;20030;-79
2022/03/03 10:47:36;;;;;;;17.70;11.63;;;10.30;99.50;;;;;;4994301;28;20095;-78
2022/03/03 10:50:03;;;;;;;16.50;11.85;;;10.50;97.10;;;;;;5010301;28;20482;-76
2022/03/03 10:52:33;;;;;;;15.75;10.30;;;10.40;94.40;;;;;;4973497;28;20117;-76
2022/03/03 10:55:11;;;;;;;12.82;9.07;;;9.80;92.00;;;;;;4990442;28;20097;-76
2022/03/03 10:57:56;;;;;;;13.05;9.98;;;10.20;89.20;;;;;;5008669;28;20033;-76
2022/03/03 11:00:24;;;;;;;16.70;10.50;;;10.20;91.70;;;;;;4973081;28;20125;-77
2022/03/03 11:02:51;;;;;;;12.70;9.50;;;11.00;88.40;;;;;;4973814;28;20030;-76
2022/03/03 11:05:18;;;;;;;11.10;8.88;;;10.90;83.70;;;;;;4994527;28;20466;-77
2022/03/03 11:07:46;;;;;;;14.68;9.00;;;10.70;79.20;;;;;;4977535;28;20022;-77
2022/03/03 11:10:20;;;;;;;13.60;9.23;;;10.60;83.60;;;;;;4995493;28;20118;-77
2022/03/03 11:12:46;;;;;;;13.18;9.00;;;10.60;79.90;;;;;;4978352;28;20105;-74
2022/03/03 11:15:14;;;;;;;13.52;9.10;;;10.50;79.60;;;;;;4995925;28;20077;-74
2022/03/03 11:17:43;;;;;;;15.05;8.63;;;10.30;82.10;;;;;;5004029;28;20105;-74
2022/03/03 11:20:11;;;;;;;11.75;9.23;;;10.90;80.10;;;;;;4997943;28;20085;-76
2022/03/03 11:22:39;;;;;;;12.13;9.65;;;10.50;77.40;;;;;;5015002;28;20486;-73
2022/03/03 11:25:08;;;;;;;15.25;9.18;;;10.60;78.50;;;;;;5015218;28;20026;-74
2022/03/03 11:27:46;;;;;;;14.52;9.88;;;10.50;79.90;;;;;;5013972;28;20091;-74
2022/03/03 11:30:17;;;;;;;15.77;9.40;;;11.20;78.00;;;;;;5015269;28;20053;-74
2022/03/03 11:32:44;;;;;;;12.43;9.23;;;11.90;74.10;;;;;;5014972;28;20022;-76
2022/03/03 11:35:15;;;;;;;13.73;8.95;;;11.80;73.30;;;;;;5015204;28;20080;-74
2022/03/03 11:37:43;;;;;;;11.65;8.93;;;12.20;72.80;;;;;;5015428;28;20022;-74
2022/03/03 11:40:12;;;;;;;12.77;9.00;;;12.30;67.30;;;;;;5014325;28;20053;-77
2022/03/03 11:42:38;;;;;;;14.07;9.05;;;12.30;68.40;;;;;;5013713;28;20080;-80
2022/03/03 11:45:13;;;;;;;18.20;9.15;;;11.70;69.00;;;;;;5008997;28;20034;-81
2022/03/03 11:47:42;;;;;;;11.13;9.18;;;11.40;70.40;;;;;;4989939;28;20034;-77
2022/03/03 11:50:16;;;;;;;12.32;8.82;;;12.10;68.40;;;;;;4992409;28;20034;-81
2022/03/03 11:52:57;;;;;;;14.40;9.20;;;12.60;68.00;;;;;;4990744;28;20037;-81
2022/03/03 11:55:38;;;;;;;14.60;8.85;;;12.70;65.70;;;;;;5010322;28;20026;-76
2022/03/03 11:58:07;;;;;;;12.32;8.95;;;12.80;64.10;;;;;;5015233;28;20040;-75
2022/03/03 12:00:44;;;;;;;12.70;9.45;;;12.40;66.50;;;;;;5014825;28;20041;-75
2022/03/03 12:03:11;;;;;;;14.73;9.40;;;12.60;65.20;;;;;;5016704;28;20026;-78
2022/03/03 12:05:40;;;;;;;14.45;9.02;;;12.50;65.30;;;;;;5018073;28;20358;-75
2022/03/03 12:08:11;;;;;;;12.23;9.43;;;12.50;64.10;;;;;;5014721;28;20022;-75
2022/03/03 12:10:38;;;;;;;12.52;9.10;;;12.20;65.60;;;;;;5019655;28;20052;-75
2022/03/03 12:13:39;;;;;;;11.90;8.55;;;12.40;61.70;;;;;;5011006;28;20033;-75
2022/03/03 12:16:37;;;;;;;12.38;7.72;;;12.80;59.90;;;;;;5012936;28;20034;-80
2022/03/03 12:19:04;;;;;;;16.50;9.65;;;12.50;60.60;;;;;;4966226;28;20038;-81
2022/03/03 12:21:40;;;;;;;12.20;8.23;;;12.40;61.10;;;;;;5013743;28;20084;-75
2022/03/03 12:24:14;;;;;;;10.48;7.93;;;12.50;60.30;;;;;;5014641;28;20033;-75
2022/03/03 12:27:01;;;;;;;10.02;7.85;;;12.90;59.90;;;;;;4994307;28;20048;-81
2022/03/03 12:29:38;;;;;;;12.55;8.75;;;12.80;59.00;;;;;;5007984;28;20026;-81
2022/03/03 12:32:29;;;;;;;11.02;8.60;;;12.60;59.30;;;;;;5007803;28;20057;-75
2022/03/03 12:35:02;;;;;;;13.95;9.95;;;12.30;59.60;;;;;;5014069;28;20057;-75